sensor_id;sensor_type;location;lat;lon;timestamp;pressure;altitude;pressure_sealevel;temperature;humidity
7834;BME280;3962;42.696;23.354;2023-07-31T00:01:55;94847.34;;;21.39;79.99
7834;BME280;3962;42.696;23.354;2023-07-31T00:04:22;94845.31;;;21.34;80.32
7834;BME280;3962;42.696;23.354;2023-07-31T00:06:49;94856.66;;;21.43;79.81
7834;BME280;3962;42.696;23.354;2023-07-31T00:09:15;94849.22;;;21.38;80.06
7834;BME280;3962;42.696;23.354;2023-07-31T00:11:43;94865.63;;;21.43;79.67
7834;BME280;3962;42.696;23.354;2023-07-31T00:14:10;94857.13;;;21.40;80.02
7834;BME280;3962;42.696;23.354;2023-07-31T00:16:37;94863.38;;;21.40;79.63
7834;BME280;3962;42.696;23.354;2023-07-31T00:19:04;94856.53;;;21.38;79.73
7834;BME280;3962;42.696;23.354;2023-07-31T00:21:31;94851.31;;;21.36;80.50
7834;BME280;3962;42.696;23.354;2023-07-31T00:23:57;94849.97;;;21.45;79.68
7834;BME280;3962;42.696;23.354;2023-07-31T00:26:24;94851.13;;;21.38;79.69
7834;BME280;3962;42.696;23.354;2023-07-31T00:28:52;94842.00;;;21.32;80.27
7834;BME280;3962;42.696;23.354;2023-07-31T00:31:19;94843.13;;;21.43;80.33
7834;BME280;3962;42.696;23.354;2023-07-31T00:33:46;94829.59;;;21.43;80.69
7834;BME280;3962;42.696;23.354;2023-07-31T00:36:13;94833.34;;;21.42;80.48
7834;BME280;3962;42.696;23.354;2023-07-31T00:38:39;94810.72;;;21.36;80.81
7834;BME280;3962;42.696;23.354;2023-07-31T00:41:06;94806.84;;;21.32;81.40
7834;BME280;3962;42.696;23.354;2023-07-31T00:43:33;94815.53;;;21.16;82.39
7834;BME280;3962;42.696;23.354;2023-07-31T00:46:01;94804.44;;;21.00;83.61
7834;BME280;3962;42.696;23.354;2023-07-31T00:48:28;94814.88;;;20.96;83.95
7834;BME280;3962;42.696;23.354;2023-07-31T00:50:55;94819.28;;;20.91;84.92
7834;BME280;3962;42.696;23.354;2023-07-31T00:53:22;94824.69;;;20.84;85.17
7834;BME280;3962;42.696;23.354;2023-07-31T00:55:52;94822.00;;;20.84;85.80
7834;BME280;3962;42.696;23.354;2023-07-31T00:58:19;94815.78;;;20.84;86.03
7834;BME280;3962;42.696;23.354;2023-07-31T01:00:46;94807.06;;;20.82;86.06
7834;BME280;3962;42.696;23.354;2023-07-31T01:03:14;94807.44;;;20.85;86.18
7834;BME280;3962;42.696;23.354;2023-07-31T01:05:49;94803.34;;;20.76;86.81
7834;BME280;3962;42.696;23.354;2023-07-31T01:08:25;94797.53;;;20.73;87.06
7834;BME280;3962;42.696;23.354;2023-07-31T01:10:56;94801.94;;;20.74;87.72
7834;BME280;3962;42.696;23.354;2023-07-31T01:13:25;94808.22;;;20.68;88.08
7834;BME280;3962;42.696;23.354;2023-07-31T01:15:52;94811.78;;;20.62;88.76
7834;BME280;3962;42.696;23.354;2023-07-31T01:18:20;94795.34;;;20.63;88.91
7834;BME280;3962;42.696;23.354;2023-07-31T01:20:53;94804.06;;;20.65;89.42
7834;BME280;3962;42.696;23.354;2023-07-31T01:23:31;94794.19;;;20.53;89.94
7834;BME280;3962;42.696;23.354;2023-07-31T01:26:07;94794.19;;;20.53;90.30
7834;BME280;3962;42.696;23.354;2023-07-31T01:28:46;94791.47;;;20.53;90.03
7834;BME280;3962;42.696;23.354;2023-07-31T01:31:18;94796.69;;;20.54;90.26
7834;BME280;3962;42.696;23.354;2023-07-31T01:33:46;94789.84;;;20.52;90.57
7834;BME280;3962;42.696;23.354;2023-07-31T01:36:14;94782.19;;;20.42;90.86
7834;BME280;3962;42.696;23.354;2023-07-31T01:38:41;94786.63;;;20.37;91.74
7834;BME280;3962;42.696;23.354;2023-07-31T01:41:10;94790.19;;;20.31;91.96
7834;BME280;3962;42.696;23.354;2023-07-31T01:43:36;94785.78;;;20.36;92.07
7834;BME280;3962;42.696;23.354;2023-07-31T01:46:03;94783.31;;;20.35;91.87
7834;BME280;3962;42.696;23.354;2023-07-31T01:48:30;94788.06;;;20.39;92.23
7834;BME280;3962;42.696;23.354;2023-07-31T01:51:01;94790.50;;;20.41;91.94
7834;BME280;3962;42.696;23.354;2023-07-31T01:53:28;94790.13;;;20.37;92.35
7834;BME280;3962;42.696;23.354;2023-07-31T01:55:54;94794.13;;;20.28;93.00
7834;BME280;3962;42.696;23.354;2023-07-31T01:58:23;94803.03;;;20.35;92.90
7834;BME280;3962;42.696;23.354;2023-07-31T02:00:49;94795.78;;;20.36;93.01
7834;BME280;3962;42.696;23.354;2023-07-31T02:03:16;94800.84;;;20.26;93.51
7834;BME280;3962;42.696;23.354;2023-07-31T02:05:47;94803.28;;;20.27;93.71
7834;BME280;3962;42.696;23.354;2023-07-31T02:08:14;94805.19;;;20.27;93.84
7834;BME280;3962;42.696;23.354;2023-07-31T02:10:41;94802.47;;;20.27;94.49
7834;BME280;3962;42.696;23.354;2023-07-31T02:13:08;94811.84;;;20.24;94.63
7834;BME280;3962;42.696;23.354;2023-07-31T02:15:37;94810.78;;;20.25;95.00
7834;BME280;3962;42.696;23.354;2023-07-31T02:18:04;94808.34;;;20.17;95.34
7834;BME280;3962;42.696;23.354;2023-07-31T02:20:33;94805.00;;;20.22;94.98
7834;BME280;3962;42.696;23.354;2023-07-31T02:23:00;94808.31;;;20.24;95.20
7834;BME280;3962;42.696;23.354;2023-07-31T02:25:27;94816.59;;;20.29;95.21
7834;BME280;3962;42.696;23.354;2023-07-31T02:27:54;94810.16;;;20.30;95.45
7834;BME280;3962;42.696;23.354;2023-07-31T02:30:21;94818.06;;;20.25;95.36
7834;BME280;3962;42.696;23.354;2023-07-31T02:32:49;94819.47;;;20.34;95.48
7834;BME280;3962;42.696;23.354;2023-07-31T02:35:16;94818.25;;;20.30;95.73
7834;BME280;3962;42.696;23.354;2023-07-31T02:37:44;94809.03;;;20.37;95.44
7834;BME280;3962;42.696;23.354;2023-07-31T02:40:11;94820.22;;;20.47;94.83
7834;BME280;3962;42.696;23.354;2023-07-31T02:42:38;94810.19;;;20.54;94.14
7834;BME280;3962;42.696;23.354;2023-07-31T02:45:06;94809.16;;;20.49;94.62
7834;BME280;3962;42.696;23.354;2023-07-31T02:47:33;94814.75;;;20.54;94.67
7834;BME280;3962;42.696;23.354;2023-07-31T02:50:01;94823.66;;;20.61;94.16
7834;BME280;3962;42.696;23.354;2023-07-31T02:52:28;94817.25;;;20.55;94.23
7834;BME280;3962;42.696;23.354;2023-07-31T02:54:55;94821.00;;;20.54;93.90
7834;BME280;3962;42.696;23.354;2023-07-31T02:57:21;94831.38;;;20.57;94.32
7834;BME280;3962;42.696;23.354;2023-07-31T02:59:48;94829.72;;;20.56;94.43
7834;BME280;3962;42.696;23.354;2023-07-31T03:02:15;94830.75;;;20.55;94.36
7834;BME280;3962;42.696;23.354;2023-07-31T03:04:42;94840.06;;;20.59;94.41
7834;BME280;3962;42.696;23.354;2023-07-31T03:07:10;94839.00;;;20.67;94.16
7834;BME280;3962;42.696;23.354;2023-07-31T03:09:37;94839.00;;;20.67;93.59
7834;BME280;3962;42.696;23.354;2023-07-31T03:12:04;94839.81;;;20.67;93.43
7834;BME280;3962;42.696;23.354;2023-07-31T03:14:31;94829.13;;;20.79;92.87
7834;BME280;3962;42.696;23.354;2023-07-31T03:16:59;94840.00;;;20.72;92.80
7834;BME280;3962;42.696;23.354;2023-07-31T03:19:26;94840.38;;;20.76;93.36
7834;BME280;3962;42.696;23.354;2023-07-31T03:21:52;94846.19;;;20.79;92.70
7834;BME280;3962;42.696;23.354;2023-07-31T03:24:21;94849.97;;;20.72;92.73
7834;BME280;3962;42.696;23.354;2023-07-31T03:26:47;94844.94;;;20.75;93.25
7834;BME280;3962;42.696;23.354;2023-07-31T03:29:14;94841.38;;;20.81;93.06
7834;BME280;3962;42.696;23.354;2023-07-31T03:31:41;94845.13;;;20.80;93.13
7834;BME280;3962;42.696;23.354;2023-07-31T03:34:08;94845.13;;;20.80;93.48
7834;BME280;3962;42.696;23.354;2023-07-31T03:36:34;94846.00;;;20.74;93.56
7834;BME280;3962;42.696;23.354;2023-07-31T03:39:02;94852.78;;;20.83;93.11
7834;BME280;3962;42.696;23.354;2023-07-31T03:41:30;94847.22;;;20.78;92.86
7834;BME280;3962;42.696;23.354;2023-07-31T03:43:56;94848.00;;;20.85;92.52
7834;BME280;3962;42.696;23.354;2023-07-31T03:46:23;94845.72;;;20.89;91.96
7834;BME280;3962;42.696;23.354;2023-07-31T03:48:50;94841.97;;;20.83;91.68
7834;BME280;3962;42.696;23.354;2023-07-31T03:51:18;94855.88;;;20.93;91.37
7834;BME280;3962;42.696;23.354;2023-07-31T03:53:45;94858.41;;;20.88;91.45
7834;BME280;3962;42.696;23.354;2023-07-31T03:56:11;94858.34;;;20.95;90.81
7834;BME280;3962;42.696;23.354;2023-07-31T03:58:40;94852.13;;;20.94;90.89
7834;BME280;3962;42.696;23.354;2023-07-31T04:01:07;94859.19;;;20.95;90.42
7834;BME280;3962;42.696;23.354;2023-07-31T04:03:33;94868.97;;;20.96;90.02
7834;BME280;3962;42.696;23.354;2023-07-31T04:06:00;94871.38;;;21.04;89.72
7834;BME280;3962;42.696;23.354;2023-07-31T04:08:27;94862.94;;;20.94;90.19
7834;BME280;3962;42.696;23.354;2023-07-31T04:10:54;94869.84;;;20.90;90.59
7834;BME280;3962;42.696;23.354;2023-07-31T04:13:21;94873.78;;;20.94;90.47
7834;BME280;3962;42.696;23.354;2023-07-31T04:15:50;94867.09;;;20.97;90.26
7834;BME280;3962;42.696;23.354;2023-07-31T04:18:17;94875.56;;;21.00;90.39
7834;BME280;3962;42.696;23.354;2023-07-31T04:20:44;94877.06;;;20.96;89.81
7834;BME280;3962;42.696;23.354;2023-07-31T04:23:11;94878.91;;;21.02;89.21
7834;BME280;3962;42.696;23.354;2023-07-31T04:25:38;94874.69;;;21.06;89.18
7834;BME280;3962;42.696;23.354;2023-07-31T04:28:04;94872.94;;;20.94;89.62
7834;BME280;3962;42.696;23.354;2023-07-31T04:30:31;94883.09;;;20.98;89.74
7834;BME280;3962;42.696;23.354;2023-07-31T04:32:59;94890.50;;;21.09;89.30
7834;BME280;3962;42.696;23.354;2023-07-31T04:35:26;94883.16;;;21.16;88.88
7834;BME280;3962;42.696;23.354;2023-07-31T04:37:53;94886.47;;;21.18;88.75
7834;BME280;3962;42.696;23.354;2023-07-31T04:40:20;94883.78;;;21.12;88.33
7834;BME280;3962;42.696;23.354;2023-07-31T04:42:47;94890.00;;;21.19;88.19
7834;BME280;3962;42.696;23.354;2023-07-31T04:45:14;94882.16;;;21.11;88.55
7834;BME280;3962;42.696;23.354;2023-07-31T04:47:41;94880.78;;;21.02;88.61
7834;BME280;3962;42.696;23.354;2023-07-31T04:50:09;94889.66;;;21.09;88.41
7834;BME280;3962;42.696;23.354;2023-07-31T04:52:36;94872.78;;;21.13;88.15
7834;BME280;3962;42.696;23.354;2023-07-31T04:55:03;94885.53;;;21.31;86.90
7834;BME280;3962;42.696;23.354;2023-07-31T04:57:30;94877.63;;;21.29;86.56
7834;BME280;3962;42.696;23.354;2023-07-31T04:59:57;94884.84;;;21.35;86.20
7834;BME280;3962;42.696;23.354;2023-07-31T05:02:24;94875.28;;;21.57;85.59
7834;BME280;3962;42.696;23.354;2023-07-31T05:04:51;94879.16;;;21.43;85.95
7834;BME280;3962;42.696;23.354;2023-07-31T05:07:19;94875.00;;;21.41;85.75
7834;BME280;3962;42.696;23.354;2023-07-31T05:09:46;94884.34;;;21.45;86.06
7834;BME280;3962;42.696;23.354;2023-07-31T05:12:12;94876.94;;;21.58;85.37
7834;BME280;3962;42.696;23.354;2023-07-31T05:14:39;94884.16;;;21.64;85.35
7834;BME280;3962;42.696;23.354;2023-07-31T05:17:06;94882.09;;;21.66;84.86
7834;BME280;3962;42.696;23.354;2023-07-31T05:19:33;94881.31;;;21.77;84.46
7834;BME280;3962;42.696;23.354;2023-07-31T05:21:59;94881.41;;;21.71;84.47
7834;BME280;3962;42.696;23.354;2023-07-31T05:24:31;94874.34;;;21.88;83.36
7834;BME280;3962;42.696;23.354;2023-07-31T05:27:00;94860.88;;;21.81;83.57
7834;BME280;3962;42.696;23.354;2023-07-31T05:29:28;94874.03;;;21.96;82.39
7834;BME280;3962;42.696;23.354;2023-07-31T05:31:55;94876.56;;;22.27;81.63
7834;BME280;3962;42.696;23.354;2023-07-31T05:34:22;94878.75;;;22.36;80.86
7834;BME280;3962;42.696;23.354;2023-07-31T05:36:49;94879.13;;;22.22;81.25
7834;BME280;3962;42.696;23.354;2023-07-31T05:39:16;94869.97;;;22.23;81.30
7834;BME280;3962;42.696;23.354;2023-07-31T05:41:47;94873.94;;;22.02;81.07
7834;BME280;3962;42.696;23.354;2023-07-31T05:44:14;94871.94;;;22.16;81.13
7834;BME280;3962;42.696;23.354;2023-07-31T05:46:40;94882.38;;;22.30;80.46
7834;BME280;3962;42.696;23.354;2023-07-31T05:49:07;94883.50;;;22.70;78.92
7834;BME280;3962;42.696;23.354;2023-07-31T05:51:34;94883.88;;;22.74;77.67
7834;BME280;3962;42.696;23.354;2023-07-31T05:54:01;94871.81;;;22.58;77.88
7834;BME280;3962;42.696;23.354;2023-07-31T05:56:28;94872.25;;;22.55;78.06
7834;BME280;3962;42.696;23.354;2023-07-31T05:58:57;94879.50;;;22.25;78.33
7834;BME280;3962;42.696;23.354;2023-07-31T06:01:23;94889.47;;;22.13;77.55
7834;BME280;3962;42.696;23.354;2023-07-31T06:03:51;94887.06;;;22.05;77.70
7834;BME280;3962;42.696;23.354;2023-07-31T06:06:18;94897.00;;;22.11;77.87
7834;BME280;3962;42.696;23.354;2023-07-31T06:08:45;94900.59;;;22.23;76.57
7834;BME280;3962;42.696;23.354;2023-07-31T06:11:12;94892.84;;;22.27;76.27
7834;BME280;3962;42.696;23.354;2023-07-31T06:13:39;94890.88;;;22.34;74.86
7834;BME280;3962;42.696;23.354;2023-07-31T06:16:08;94900.44;;;22.54;74.52
7834;BME280;3962;42.696;23.354;2023-07-31T06:18:35;94893.06;;;22.73;74.11
7834;BME280;3962;42.696;23.354;2023-07-31T06:21:02;94898.81;;;22.94;73.40
7834;BME280;3962;42.696;23.354;2023-07-31T06:23:29;94885.25;;;23.05;71.89
7834;BME280;3962;42.696;23.354;2023-07-31T06:25:56;94884.88;;;22.91;71.88
7834;BME280;3962;42.696;23.354;2023-07-31T06:28:27;94896.63;;;22.85;71.63
7834;BME280;3962;42.696;23.354;2023-07-31T06:30:54;94897.47;;;22.85;71.86
7834;BME280;3962;42.696;23.354;2023-07-31T06:33:22;94884.97;;;22.84;71.63
7834;BME280;3962;42.696;23.354;2023-07-31T06:35:49;94876.34;;;22.76;71.65
7834;BME280;3962;42.696;23.354;2023-07-31T06:38:18;94885.69;;;22.50;72.12
7834;BME280;3962;42.696;23.354;2023-07-31T06:40:45;94879.94;;;22.58;72.09
7834;BME280;3962;42.696;23.354;2023-07-31T06:43:12;94897.56;;;22.49;72.50
7834;BME280;3962;42.696;23.354;2023-07-31T06:45:39;94889.63;;;22.66;72.37
7834;BME280;3962;42.696;23.354;2023-07-31T06:48:05;94887.47;;;22.86;71.90
7834;BME280;3962;42.696;23.354;2023-07-31T06:50:34;94885.19;;;22.83;71.48
7834;BME280;3962;42.696;23.354;2023-07-31T06:53:00;94895.84;;;22.84;71.76
7834;BME280;3962;42.696;23.354;2023-07-31T06:55:28;94887.59;;;22.91;70.45
7834;BME280;3962;42.696;23.354;2023-07-31T06:57:55;94888.06;;;22.88;70.64
7834;BME280;3962;42.696;23.354;2023-07-31T07:00:22;94883.22;;;23.42;68.19
7834;BME280;3962;42.696;23.354;2023-07-31T07:02:49;94899.06;;;23.56;67.56
7834;BME280;3962;42.696;23.354;2023-07-31T07:05:17;94885.81;;;23.83;67.02
7834;BME280;3962;42.696;23.354;2023-07-31T07:07:45;94889.75;;;23.98;66.02
7834;BME280;3962;42.696;23.354;2023-07-31T07:10:12;94892.94;;;24.58;64.51
7834;BME280;3962;42.696;23.354;2023-07-31T07:12:39;94890.00;;;25.04;62.51
7834;BME280;3962;42.696;23.354;2023-07-31T07:15:07;94894.78;;;25.58;61.44
7834;BME280;3962;42.696;23.354;2023-07-31T07:17:36;94887.59;;;26.01;59.07
7834;BME280;3962;42.696;23.354;2023-07-31T07:20:04;94887.91;;;26.05;58.32
7834;BME280;3962;42.696;23.354;2023-07-31T07:22:31;94905.06;;;26.43;56.85
7834;BME280;3962;42.696;23.354;2023-07-31T07:25:02;94899.84;;;26.42;57.07
7834;BME280;3962;42.696;23.354;2023-07-31T07:27:33;94907.19;;;26.58;56.14
7834;BME280;3962;42.696;23.354;2023-07-31T07:30:00;94910.47;;;27.29;54.29
7834;BME280;3962;42.696;23.354;2023-07-31T07:32:27;94894.00;;;27.50;53.57
7834;BME280;3962;42.696;23.354;2023-07-31T07:34:55;94894.25;;;27.18;54.11
7834;BME280;3962;42.696;23.354;2023-07-31T07:37:22;94895.56;;;26.67;56.43
7834;BME280;3962;42.696;23.354;2023-07-31T07:39:49;94893.38;;;25.88;57.81
7834;BME280;3962;42.696;23.354;2023-07-31T07:42:18;94893.16;;;25.12;60.42
7834;BME280;3962;42.696;23.354;2023-07-31T07:44:44;94896.47;;;26.13;57.33
7834;BME280;3962;42.696;23.354;2023-07-31T07:47:12;94900.63;;;27.28;53.88
7834;BME280;3962;42.696;23.354;2023-07-31T07:49:42;94911.72;;;27.17;53.59
7834;BME280;3962;42.696;23.354;2023-07-31T07:52:12;94906.41;;;26.62;54.96
7834;BME280;3962;42.696;23.354;2023-07-31T07:54:39;94907.13;;;26.15;55.47
7834;BME280;3962;42.696;23.354;2023-07-31T07:57:06;94911.94;;;25.91;56.84
7834;BME280;3962;42.696;23.354;2023-07-31T07:59:34;94887.00;;;25.99;56.09
7834;BME280;3962;42.696;23.354;2023-07-31T08:02:01;94904.34;;;25.77;56.65
7834;BME280;3962;42.696;23.354;2023-07-31T08:04:28;94905.69;;;25.58;57.40
7834;BME280;3962;42.696;23.354;2023-07-31T08:06:54;94897.47;;;26.07;56.69
7834;BME280;3962;42.696;23.354;2023-07-31T08:09:21;94904.09;;;27.19;53.11
7834;BME280;3962;42.696;23.354;2023-07-31T08:11:48;94911.31;;;27.08;53.21
7834;BME280;3962;42.696;23.354;2023-07-31T08:14:15;94887.53;;;26.18;55.35
7834;BME280;3962;42.696;23.354;2023-07-31T08:16:43;94916.41;;;25.48;56.84
7834;BME280;3962;42.696;23.354;2023-07-31T08:19:10;94904.69;;;25.80;56.92
7834;BME280;3962;42.696;23.354;2023-07-31T08:21:38;94902.03;;;27.31;52.74
7834;BME280;3962;42.696;23.354;2023-07-31T08:24:05;94909.00;;;27.48;51.56
7834;BME280;3962;42.696;23.354;2023-07-31T08:26:33;94921.38;;;27.55;51.14
7834;BME280;3962;42.696;23.354;2023-07-31T08:29:00;94900.56;;;28.17;49.83
7834;BME280;3962;42.696;23.354;2023-07-31T08:31:26;94905.13;;;28.43;48.82
7834;BME280;3962;42.696;23.354;2023-07-31T08:33:56;94915.50;;;28.98;48.07
7834;BME280;3962;42.696;23.354;2023-07-31T08:36:23;94912.84;;;29.28;47.34
7834;BME280;3962;42.696;23.354;2023-07-31T08:38:50;94905.94;;;28.95;47.20
7834;BME280;3962;42.696;23.354;2023-07-31T08:41:16;94884.88;;;28.44;48.72
7834;BME280;3962;42.696;23.354;2023-07-31T08:43:44;94897.22;;;27.42;50.23
7834;BME280;3962;42.696;23.354;2023-07-31T08:46:12;94905.03;;;27.08;51.22
7834;BME280;3962;42.696;23.354;2023-07-31T08:48:42;94904.03;;;27.14;51.30
7834;BME280;3962;42.696;23.354;2023-07-31T08:51:11;94890.63;;;27.39;50.20
7834;BME280;3962;42.696;23.354;2023-07-31T08:53:37;94901.63;;;26.96;51.02
7834;BME280;3962;42.696;23.354;2023-07-31T08:56:05;94910.66;;;26.75;51.22
7834;BME280;3962;42.696;23.354;2023-07-31T08:58:34;94902.34;;;27.13;51.27
7834;BME280;3962;42.696;23.354;2023-07-31T09:01:03;94897.13;;;27.64;49.74
7834;BME280;3962;42.696;23.354;2023-07-31T09:03:33;94896.91;;;27.70;49.25
7834;BME280;3962;42.696;23.354;2023-07-31T09:06:02;94896.88;;;27.97;48.74
7834;BME280;3962;42.696;23.354;2023-07-31T09:08:33;94895.09;;;28.17;47.93
7834;BME280;3962;42.696;23.354;2023-07-31T09:11:01;94900.56;;;28.64;47.30
7834;BME280;3962;42.696;23.354;2023-07-31T09:13:29;94907.16;;;28.73;46.38
7834;BME280;3962;42.696;23.354;2023-07-31T09:15:56;94900.72;;;28.94;46.25
7834;BME280;3962;42.696;23.354;2023-07-31T09:18:23;94893.38;;;29.19;45.67
7834;BME280;3962;42.696;23.354;2023-07-31T09:21:00;94892.34;;;29.55;45.55
7834;BME280;3962;42.696;23.354;2023-07-31T09:23:42;94890.94;;;29.33;45.63
7834;BME280;3962;42.696;23.354;2023-07-31T09:26:09;94893.06;;;29.06;45.88
7834;BME280;3962;42.696;23.354;2023-07-31T09:28:37;94876.28;;;28.87;46.37
7834;BME280;3962;42.696;23.354;2023-07-31T09:31:03;94876.94;;;29.29;45.58
7834;BME280;3962;42.696;23.354;2023-07-31T09:33:30;94882.34;;;28.94;46.04
7834;BME280;3962;42.696;23.354;2023-07-31T09:35:58;94865.19;;;28.52;47.67
7834;BME280;3962;42.696;23.354;2023-07-31T09:38:26;94882.66;;;29.03;46.73
7834;BME280;3962;42.696;23.354;2023-07-31T09:40:55;94875.41;;;28.20;47.50
7834;BME280;3962;42.696;23.354;2023-07-31T09:43:22;94871.84;;;27.78;48.07
7834;BME280;3962;42.696;23.354;2023-07-31T09:45:55;94870.06;;;27.99;47.93
7834;BME280;3962;42.696;23.354;2023-07-31T09:48:23;94878.09;;;28.62;46.75
7834;BME280;3962;42.696;23.354;2023-07-31T09:50:53;94858.81;;;28.98;46.32
7834;BME280;3962;42.696;23.354;2023-07-31T09:53:28;94860.81;;;29.73;44.76
7834;BME280;3962;42.696;23.354;2023-07-31T09:55:58;94861.59;;;29.13;45.11
7834;BME280;3962;42.696;23.354;2023-07-31T09:58:26;94860.66;;;28.31;46.63
7834;BME280;3962;42.696;23.354;2023-07-31T10:00:57;94867.22;;;28.25;46.90
7834;BME280;3962;42.696;23.354;2023-07-31T10:03:24;94866.59;;;28.13;47.29
7834;BME280;3962;42.696;23.354;2023-07-31T10:05:54;94865.16;;;28.01;47.45
7834;BME280;3962;42.696;23.354;2023-07-31T10:08:27;94858.47;;;27.50;47.80
7834;BME280;3962;42.696;23.354;2023-07-31T10:10:59;94866.00;;;27.34;48.46
7834;BME280;3962;42.696;23.354;2023-07-31T10:13:28;94867.03;;;27.95;47.32
7834;BME280;3962;42.696;23.354;2023-07-31T10:15:58;94848.97;;;28.36;46.26
7834;BME280;3962;42.696;23.354;2023-07-31T10:18:26;94868.44;;;29.16;45.13
7834;BME280;3962;42.696;23.354;2023-07-31T10:20:54;94858.38;;;29.51;44.20
7834;BME280;3962;42.696;23.354;2023-07-31T10:23:23;94856.72;;;29.55;43.24
7834;BME280;3962;42.696;23.354;2023-07-31T10:25:52;94854.38;;;28.92;44.21
7834;BME280;3962;42.696;23.354;2023-07-31T10:28:25;94848.56;;;28.69;45.49
7834;BME280;3962;42.696;23.354;2023-07-31T10:30:55;94852.69;;;28.86;44.72
7834;BME280;3962;42.696;23.354;2023-07-31T10:33:23;94861.56;;;29.18;43.09
7834;BME280;3962;42.696;23.354;2023-07-31T10:35:50;94854.63;;;28.86;42.64
7834;BME280;3962;42.696;23.354;2023-07-31T10:38:19;94864.31;;;29.13;43.56
7834;BME280;3962;42.696;23.354;2023-07-31T10:40:45;94856.94;;;29.24;42.81
7834;BME280;3962;42.696;23.354;2023-07-31T10:43:25;94847.66;;;29.65;41.97
7834;BME280;3962;42.696;23.354;2023-07-31T10:45:53;94837.78;;;29.89;42.25
7834;BME280;3962;42.696;23.354;2023-07-31T10:48:20;94841.03;;;30.16;41.89
7834;BME280;3962;42.696;23.354;2023-07-31T10:50:49;94838.00;;;30.12;42.29
7834;BME280;3962;42.696;23.354;2023-07-31T10:53:22;94838.28;;;29.11;43.42
7834;BME280;3962;42.696;23.354;2023-07-31T10:55:50;94834.75;;;28.44;44.53
7834;BME280;3962;42.696;23.354;2023-07-31T10:58:19;94841.53;;;28.98;43.55
7834;BME280;3962;42.696;23.354;2023-07-31T11:00:47;94836.16;;;29.63;42.64
7834;BME280;3962;42.696;23.354;2023-07-31T11:03:16;94823.78;;;29.20;43.24
7834;BME280;3962;42.696;23.354;2023-07-31T11:05:48;94834.91;;;28.79;44.39
7834;BME280;3962;42.696;23.354;2023-07-31T11:08:17;94827.63;;;29.19;43.24
7834;BME280;3962;42.696;23.354;2023-07-31T11:10:45;94835.31;;;29.62;41.83
7834;BME280;3962;42.696;23.354;2023-07-31T11:13:13;94829.50;;;30.04;41.36
7834;BME280;3962;42.696;23.354;2023-07-31T11:15:40;94818.03;;;29.82;40.70
7834;BME280;3962;42.696;23.354;2023-07-31T11:18:08;94812.81;;;29.25;41.98
7834;BME280;3962;42.696;23.354;2023-07-31T11:20:38;94819.34;;;28.99;43.06
7834;BME280;3962;42.696;23.354;2023-07-31T11:23:08;94807.63;;;29.79;42.03
7834;BME280;3962;42.696;23.354;2023-07-31T11:25:37;94813.09;;;29.69;40.81
7834;BME280;3962;42.696;23.354;2023-07-31T11:28:08;94822.94;;;29.90;41.04
7834;BME280;3962;42.696;23.354;2023-07-31T11:30:36;94814.44;;;29.41;41.18
7834;BME280;3962;42.696;23.354;2023-07-31T11:33:04;94815.00;;;29.28;41.42
7834;BME280;3962;42.696;23.354;2023-07-31T11:35:34;94802.63;;;30.01;40.95
7834;BME280;3962;42.696;23.354;2023-07-31T11:38:02;94816.63;;;30.09;40.23
7834;BME280;3962;42.696;23.354;2023-07-31T11:40:29;94820.75;;;30.12;39.87
7834;BME280;3962;42.696;23.354;2023-07-31T11:42:57;94816.13;;;29.72;40.79
7834;BME280;3962;42.696;23.354;2023-07-31T11:45:27;94812.78;;;29.10;42.08
7834;BME280;3962;42.696;23.354;2023-07-31T11:47:55;94804.84;;;29.04;42.94
7834;BME280;3962;42.696;23.354;2023-07-31T11:50:23;94796.91;;;29.17;42.63
7834;BME280;3962;42.696;23.354;2023-07-31T11:52:57;94808.19;;;29.51;41.30
7834;BME280;3962;42.696;23.354;2023-07-31T11:55:26;94797.47;;;29.79;41.04
7834;BME280;3962;42.696;23.354;2023-07-31T11:57:56;94807.88;;;29.37;41.33
7834;BME280;3962;42.696;23.354;2023-07-31T12:00:24;94798.00;;;29.31;41.80
7834;BME280;3962;42.696;23.354;2023-07-31T12:02:51;94792.00;;;29.64;42.00
7834;BME280;3962;42.696;23.354;2023-07-31T12:05:19;94802.41;;;29.72;40.91
7834;BME280;3962;42.696;23.354;2023-07-31T12:07:50;94795.84;;;29.68;41.70
7834;BME280;3962;42.696;23.354;2023-07-31T12:10:27;94795.75;;;30.03;40.95
7834;BME280;3962;42.696;23.354;2023-07-31T12:13:00;94790.38;;;30.62;40.40
7834;BME280;3962;42.696;23.354;2023-07-31T12:15:37;94797.41;;;30.09;40.57
7834;BME280;3962;42.696;23.354;2023-07-31T12:18:06;94796.09;;;29.32;42.36
7834;BME280;3962;42.696;23.354;2023-07-31T12:20:33;94786.69;;;28.73;43.77
7834;BME280;3962;42.696;23.354;2023-07-31T12:23:01;94788.88;;;28.71;43.33
7834;BME280;3962;42.696;23.354;2023-07-31T12:25:31;94783.88;;;28.48;44.34
7834;BME280;3962;42.696;23.354;2023-07-31T12:28:07;94782.00;;;28.63;43.68
7834;BME280;3962;42.696;23.354;2023-07-31T12:30:38;94779.94;;;29.20;42.82
7834;BME280;3962;42.696;23.354;2023-07-31T12:33:06;94780.19;;;29.44;41.67
7834;BME280;3962;42.696;23.354;2023-07-31T12:35:37;94782.66;;;29.70;42.04
7834;BME280;3962;42.696;23.354;2023-07-31T12:38:04;94782.09;;;28.93;42.09
7834;BME280;3962;42.696;23.354;2023-07-31T12:40:32;94778.53;;;28.93;43.30
7834;BME280;3962;42.696;23.354;2023-07-31T12:43:01;94759.34;;;29.38;42.54
7834;BME280;3962;42.696;23.354;2023-07-31T12:45:29;94764.88;;;29.33;41.60
7834;BME280;3962;42.696;23.354;2023-07-31T12:47:59;94762.13;;;29.08;42.45
7834;BME280;3962;42.696;23.354;2023-07-31T12:50:26;94772.47;;;28.86;42.65
7834;BME280;3962;42.696;23.354;2023-07-31T12:52:53;94761.41;;;28.41;44.02
7834;BME280;3962;42.696;23.354;2023-07-31T12:55:21;94765.72;;;28.27;44.51
7834;BME280;3962;42.696;23.354;2023-07-31T12:57:50;94763.59;;;27.82;45.28
7834;BME280;3962;42.696;23.354;2023-07-31T13:00:17;94769.19;;;28.02;44.81
7834;BME280;3962;42.696;23.354;2023-07-31T13:02:44;94756.41;;;28.23;44.71
7834;BME280;3962;42.696;23.354;2023-07-31T13:05:11;94748.00;;;28.34;44.80
7834;BME280;3962;42.696;23.354;2023-07-31T13:07:39;94750.56;;;28.76;43.85
7834;BME280;3962;42.696;23.354;2023-07-31T13:10:07;94745.97;;;28.96;42.95
7834;BME280;3962;42.696;23.354;2023-07-31T13:12:34;94752.25;;;29.02;42.32
7834;BME280;3962;42.696;23.354;2023-07-31T13:15:11;94741.53;;;28.80;42.98